Time;durP1;ratioP1;P1;durP2;ratioP2;P2;SDS_P1;SDS_P2;PMS_P1;PMS_P2;Temp;Humidity;BMP_temperature;BMP_pressure;BME280_temperature;BME280_humidity;BME280_pressure;Samples;Min_cycle;Max_cycle;Signal;HPM_P1;HPM_P2
2021/08/14 00:04:49;;;;;;;8.20;7.27;;;;;;;20.58;70.40;99091.61;262558;1090;25995;-70
2021/08/14 00:10:07;;;;;;;10.30;8.23;;;;;;;20.63;70.71;99083.20;262545;1088;25903;-71
2021/08/14 00:15:26;;;;;;;11.73;8.63;;;;;;;20.64;70.47;99088.30;262441;1089;23395;-70
2021/08/14 00:20:34;;;;;;;9.63;8.03;;;;;;;20.64;70.44;99082.86;262657;1088;25928;-71
2021/08/14 00:25:39;;;;;;;10.40;8.47;;;;;;;20.63;70.67;99083.20;262517;1090;22803;-71
2021/08/14 00:30:50;;;;;;;9.90;8.83;;;;;;;20.57;71.02;99092.78;262503;1090;22775;-70
2021/08/14 00:35:55;;;;;;;10.20;9.10;;;;;;;20.49;71.12;99089.05;262558;1089;22716;-70
2021/08/14 00:41:00;;;;;;;13.53;9.70;;;;;;;20.39;70.83;99086.84;262559;1088;22748;-70
2021/08/14 00:46:06;;;;;;;12.03;9.23;;;;;;;20.31;71.34;99088.55;261942;1090;22860;-71
2021/08/14 00:51:21;;;;;;;9.55;8.25;;;;;;;20.24;71.25;99082.92;262471;1089;22942;-72
2021/08/14 00:56:35;;;;;;;9.67;8.17;;;;;;;20.23;71.50;99073.98;262539;1090;26258;-70
2021/08/14 01:01:38;;;;;;;9.97;8.90;;;;;;;20.24;71.70;99085.64;262640;1087;22803;-71
2021/08/14 01:06:44;;;;;;;10.47;8.03;;;;;;;20.26;72.13;99086.88;262544;1089;22924;-71
2021/08/14 01:11:56;;;;;;;12.35;9.20;;;;;;;20.29;71.88;99090.84;262523;1087;24444;-70
2021/08/14 01:17:25;;;;;;;10.33;8.77;;;;;;;20.29;71.87;99071.80;262483;1090;22780;-70
2021/08/14 01:22:29;;;;;;;10.60;8.17;;;;;;;20.30;71.84;99076.89;262505;1090;22940;-71
2021/08/14 01:27:34;;;;;;;9.85;8.00;;;;;;;20.36;71.97;99069.28;262506;1087;27074;-70
2021/08/14 01:32:46;;;;;;;12.40;8.63;;;;;;;20.47;72.38;99062.20;262573;1087;25996;-70
2021/08/14 01:37:51;;;;;;;10.77;8.80;;;;;;;20.51;72.72;99057.64;262558;1090;22779;-71
2021/08/14 01:43:07;;;;;;;11.43;8.33;;;;;;;20.58;72.37;99057.05;262476;1087;23398;-71
2021/08/14 01:48:11;;;;;;;14.05;7.65;;;;;;;20.65;72.42;99051.78;262646;1089;27089;-70
2021/08/14 01:53:14;;;;;;;9.25;7.85;;;;;;;20.77;72.81;99041.99;262552;1090;24064;-70
2021/08/14 01:58:25;;;;;;;9.77;7.73;;;;;;;20.83;72.36;99029.69;262549;1087;24362;-70
2021/08/14 02:03:28;;;;;;;8.58;7.68;;;;;;;20.87;72.64;99029.79;262599;1087;22864;-70
2021/08/14 02:08:32;;;;;;;10.07;7.83;;;;;;;20.87;72.42;99040.69;262474;1087;24058;-70
2021/08/14 02:13:36;;;;;;;9.87;7.60;;;;;;;20.87;72.75;99043.41;262539;1087;22764;-70
2021/08/14 02:18:41;;;;;;;10.65;8.70;;;;;;;20.86;72.29;99045.34;262510;1086;25989;-71
2021/08/14 02:23:46;;;;;;;10.30;7.45;;;;;;;20.85;72.75;99041.03;262532;1086;27157;-70
2021/08/14 02:28:50;;;;;;;9.90;6.87;;;;;;;20.73;72.25;99039.17;262575;1087;25874;-71
2021/08/14 02:33:54;;;;;;;8.57;7.67;;;;;;;20.67;72.45;99025.03;262513;1087;25990;-70
2021/08/14 02:39:11;;;;;;;8.60;7.70;;;;;;;20.60;72.43;99032.20;262630;1087;25887;-71
2021/08/14 02:44:31;;;;;;;10.30;7.57;;;;;;;20.46;72.72;99041.56;262479;1085;22803;-69
2021/08/14 02:49:35;;;;;;;8.10;7.25;;;;;;;20.41;72.85;99039.11;262514;1086;22755;-70
2021/08/14 02:54:43;;;;;;;9.80;8.80;;;;;;;20.37;72.80;99034.69;262476;1087;22760;-70
2021/08/14 02:59:59;;;;;;;10.80;8.83;;;;;;;20.32;72.82;99031.08;262562;1087;22897;-70
2021/08/14 03:05:04;;;;;;;11.77;8.50;;;;;;;20.37;73.12;99026.53;262575;1087;25858;-71
2021/08/14 03:10:20;;;;;;;10.37;8.00;;;;;;;20.41;73.06;99028.23;262585;1087;25967;-70
2021/08/14 03:15:32;;;;;;;11.13;9.23;;;;;;;20.45;73.21;99031.03;262505;1090;25881;-70
2021/08/14 03:20:36;;;;;;;12.15;9.65;;;;;;;20.43;73.15;99042.26;262569;1090;22793;-70
2021/08/14 03:25:40;;;;;;;12.13;9.17;;;;;;;20.43;73.29;99044.20;262651;1087;22866;-71
2021/08/14 03:30:45;;;;;;;14.10;9.33;;;;;;;20.47;73.67;99050.53;262548;1090;22782;-70
2021/08/14 03:35:48;;;;;;;22.25;11.10;;;;;;;20.51;73.69;99048.70;262537;1090;22959;-71
2021/08/14 03:41:06;;;;;;;12.67;10.77;;;;;;;20.51;73.50;99045.98;262590;1088;23280;-70
2021/08/14 03:46:14;;;;;;;13.70;9.60;;;;;;;20.51;73.82;99041.31;262578;1087;25845;-70
2021/08/14 03:51:18;;;;;;;14.27;10.13;;;;;;;20.53;73.61;99040.96;262587;1090;22773;-70
2021/08/14 03:56:21;;;;;;;11.93;10.10;;;;;;;20.56;73.39;99042.20;262600;1089;23896;-70
2021/08/14 04:01:24;;;;;;;15.27;10.03;;;;;;;20.58;73.01;99045.35;262577;1090;25976;-70
2021/08/14 04:06:28;;;;;;;15.77;10.13;;;;;;;20.57;73.02;99060.13;262472;1090;22854;-70
2021/08/14 04:11:34;;;;;;;13.20;10.05;;;;;;;20.66;73.36;99052.56;262526;1090;26299;-72
2021/08/14 04:16:40;;;;;;;13.83;10.57;;;;;;;20.84;73.38;99051.12;261860;1090;25880;-71
2021/08/14 04:21:47;;;;;;;15.65;11.25;;;;;;;21.03;72.87;99055.09;262616;1090;22802;-71
2021/08/14 04:26:52;;;;;;;13.53;9.60;;;;;;;21.18;72.46;99061.66;262504;1088;22799;-70
2021/08/14 04:31:58;;;;;;;12.90;9.33;;;;;;;21.32;72.60;99055.77;262482;1087;22747;-71
2021/08/14 04:37:21;;;;;;;11.33;9.93;;;;;;;21.47;72.16;99056.90;262624;1086;22784;-71
2021/08/14 04:42:24;;;;;;;13.20;9.70;;;;;;;21.43;71.06;99066.92;262551;1087;22774;-71
2021/08/14 04:47:28;;;;;;;11.35;7.98;;;;;;;21.51;70.91;99079.57;262484;1087;25989;-71
2021/08/14 04:52:31;;;;;;;12.93;9.10;;;;;;;21.50;70.38;99067.89;262639;1087;25995;-71
2021/08/14 04:57:35;;;;;;;10.83;9.05;;;;;;;21.45;70.33;99084.51;262675;1088;26255;-72
2021/08/14 05:02:39;;;;;;;10.80;8.20;;;;;;;21.41;70.50;99082.85;262554;1085;22843;-70
2021/08/14 05:07:55;;;;;;;12.43;9.60;;;;;;;21.42;70.73;99078.96;262642;1089;22773;-69
2021/08/14 05:13:31;;;;;;;10.75;9.13;;;;;;;21.32;70.17;99083.02;262591;1087;22949;-71
2021/08/14 05:18:54;;;;;;;9.70;8.37;;;;;;;21.33;70.89;99084.59;262658;1087;22797;-70
2021/08/14 05:24:10;;;;;;;12.30;9.70;;;;;;;21.43;71.19;99091.45;262578;1087;22830;-71
2021/08/14 05:29:34;;;;;;;11.30;10.05;;;;;;;21.47;70.97;99092.33;262554;1087;26017;-70
2021/08/14 05:34:37;;;;;;;12.47;11.17;;;;;;;21.50;70.55;99097.88;262559;1090;26066;-72
2021/08/14 05:39:41;;;;;;;12.25;10.10;;;;;;;21.61;71.06;99086.45;262527;1087;22848;-70
2021/08/14 05:44:45;;;;;;;11.90;9.70;;;;;;;21.69;70.89;99091.70;262543;1089;25877;-70
2021/08/14 05:50:06;;;;;;;10.05;8.45;;;;;;;21.81;70.90;99095.45;262649;1086;22778;-70
2021/08/14 05:55:11;;;;;;;10.50;9.17;;;;;;;21.88;70.76;99087.42;262504;1088;22828;-69
2021/08/14 06:00:14;;;;;;;9.45;8.23;;;;;;;22.01;70.62;99093.56;262551;1087;24345;-69
2021/08/14 06:05:18;;;;;;;11.47;8.40;;;;;;;22.15;70.90;99087.61;262501;1087;25989;-70
2021/08/14 06:10:24;;;;;;;9.43;8.30;;;;;;;22.34;71.03;99090.38;262520;1087;26369;-71
2021/08/14 06:15:29;;;;;;;8.80;7.93;;;;;;;22.55;70.36;99102.84;262498;1086;24624;-70
2021/08/14 06:20:45;;;;;;;10.10;8.38;;;;;;;22.71;70.07;99106.27;262637;1087;26163;-70
2021/08/14 06:25:48;;;;;;;8.98;8.08;;;;;;;22.85;69.79;99104.97;262714;1087;25990;-70
2021/08/14 06:30:51;;;;;;;10.07;7.73;;;;;;;23.06;69.73;99093.63;262610;1087;25867;-70
2021/08/14 06:35:54;;;;;;;8.63;7.47;;;;;;;23.30;69.38;99092.48;262551;1087;24453;-70
2021/08/14 06:40:57;;;;;;;8.25;7.30;;;;;;;23.61;69.32;99109.74;262795;1087;24039;-72
2021/08/14 06:46:00;;;;;;;8.68;7.48;;;;;;;23.83;68.37;99112.80;262643;1087;24454;-70
2021/08/14 06:51:04;;;;;;;7.93;7.13;;;;;;;23.98;67.94;99109.13;262720;1087;25995;-70
2021/08/14 06:56:07;;;;;;;8.65;7.85;;;;;;;24.10;67.67;99124.52;262852;1087;25932;-70
2021/08/14 07:01:10;;;;;;;8.20;7.50;;;;;;;24.23;67.40;99112.19;262937;1088;24351;-70
2021/08/14 07:06:25;;;;;;;13.63;8.43;;;;;;;24.43;66.63;99122.98;262941;1087;23581;-71
2021/08/14 07:11:28;;;;;;;9.20;8.30;;;;;;;24.70;66.93;99118.22;262967;1085;22880;-70
2021/08/14 07:16:33;;;;;;;10.08;9.08;;;;;;;24.87;65.99;99127.00;262957;1087;25787;-70
2021/08/14 07:21:38;;;;;;;8.60;7.70;;;;;;;25.03;65.79;99126.75;262961;1089;22834;-71
2021/08/14 07:26:45;;;;;;;11.53;8.65;;;;;;;25.17;65.05;99121.42;262986;1087;25951;-71
2021/08/14 07:31:53;;;;;;;8.33;7.50;;;;;;;25.35;65.03;99118.86;262925;1085;24295;-71
2021/08/14 07:37:06;;;;;;;9.43;8.53;;;;;;;25.54;64.72;99115.06;263172;1087;26014;-71
2021/08/14 07:42:09;;;;;;;8.48;7.58;;;;;;;25.75;63.61;99110.90;262967;1087;22867;-71
2021/08/14 07:47:16;;;;;;;9.85;7.50;;;;;;;25.99;62.94;99122.40;262923;1088;26024;-71
2021/08/14 07:52:30;;;;;;;8.30;7.50;;;;;;;26.26;62.95;99125.68;263035;1088;22802;-70
2021/08/14 07:57:38;;;;;;;8.90;8.00;;;;;;;26.29;62.05;99122.97;263014;1087;26892;-71
2021/08/14 08:02:42;;;;;;;10.38;8.53;;;;;;;26.43;62.13;99135.19;263293;1087;23359;-70
2021/08/14 08:07:46;;;;;;;9.20;8.30;;;;;;;26.61;61.66;99135.22;263086;1087;23231;-71
2021/08/14 08:12:49;;;;;;;9.30;8.45;;;;;;;26.83;61.18;99138.84;263260;1085;23614;-71
2021/08/14 08:17:55;;;;;;;8.33;7.53;;;;;;;26.97;60.71;99140.84;263133;1088;22776;-71
2021/08/14 08:23:17;;;;;;;9.10;8.18;;;;;;;26.93;59.58;99129.86;262903;1088;25896;-71
2021/08/14 08:28:22;;;;;;;9.20;8.40;;;;;;;27.09;60.09;99134.19;263117;1089;22805;-71
2021/08/14 08:33:25;;;;;;;8.95;8.05;;;;;;;27.30;59.53;99131.44;263014;1088;22897;-71
2021/08/14 08:38:29;;;;;;;8.88;7.98;;;;;;;27.41;58.93;99133.45;263171;1087;25893;-71
2021/08/14 08:43:34;;;;;;;11.90;10.75;;;;;;;27.55;58.34;99138.13;262937;1087;22767;-71
2021/08/14 08:48:43;;;;;;;8.68;7.88;;;;;;;27.56;58.22;99124.01;262919;1087;25896;-71
2021/08/14 08:53:46;;;;;;;9.18;8.38;;;;;;;27.70;58.86;99131.43;263025;1086;23371;-72
2021/08/14 08:58:50;;;;;;;9.75;8.85;;;;;;;27.86;58.17;99121.98;263230;1090;22845;-71
2021/08/14 09:04:14;;;;;;;10.20;9.20;;;;;;;27.94;58.00;99120.77;263115;1087;25855;-71
2021/08/14 09:09:17;;;;;;;9.40;8.50;;;;;;;28.15;58.57;99119.97;262977;1087;22759;-71
2021/08/14 09:14:21;;;;;;;11.10;10.00;;;;;;;28.26;57.92;99117.14;262916;1087;22793;-71
2021/08/14 09:19:26;;;;;;;10.50;9.50;;;;;;;28.20;57.23;99111.27;262960;1087;23083;-71
2021/08/14 09:24:32;;;;;;;10.20;9.20;;;;;;;28.15;56.88;99108.95;263071;1087;24311;-71
2021/08/14 09:29:49;;;;;;;10.58;9.48;;;;;;;28.24;57.06;99106.53;262966;1089;22863;-71
2021/08/14 09:34:53;;;;;;;9.98;9.05;;;;;;;28.24;55.60;99109.29;262957;1089;25884;-73
2021/08/14 09:40:01;;;;;;;10.20;8.80;;;;;;;28.27;54.95;99110.46;262895;1090;22770;-73
2021/08/14 09:45:13;;;;;;;9.18;8.35;;;;;;;28.28;54.56;99107.30;263039;1087;22811;-71
2021/08/14 09:50:41;;;;;;;9.50;8.53;;;;;;;28.36;54.25;99113.58;263102;1089;26264;-72
2021/08/14 09:55:47;;;;;;;8.45;7.75;;;;;;;28.46;53.82;99106.45;262921;1088;22795;-72
2021/08/14 10:00:50;;;;;;;8.83;7.93;;;;;;;28.51;53.07;99106.81;263261;1087;22826;-72
2021/08/14 10:05:54;;;;;;;8.03;7.28;;;;;;;28.60;52.45;99108.34;263007;1087;25852;-72
2021/08/14 10:10:58;;;;;;;8.95;8.05;;;;;;;28.76;52.69;99103.13;263056;1090;23831;-72
2021/08/14 10:16:04;;;;;;;8.73;7.73;;;;;;;29.00;52.60;99106.92;263007;1088;22766;-71
2021/08/14 10:21:15;;;;;;;9.03;8.23;;;;;;;29.16;50.92;99097.34;263124;1089;22760;-72
2021/08/14 10:26:19;;;;;;;9.23;8.38;;;;;;;29.21;50.62;99098.88;263257;1090;23392;-71
2021/08/14 10:31:29;;;;;;;9.00;8.15;;;;;;;29.30;49.93;99085.44;263869;1087;23788;-71
2021/08/14 10:36:35;;;;;;;9.40;8.40;;;;;;;29.51;50.29;99079.70;263031;1087;22802;-71
2021/08/14 10:41:38;;;;;;;10.13;8.18;;;;;;;29.57;49.36;99071.77;262938;1086;22793;-72
2021/08/14 10:46:41;;;;;;;9.83;8.80;;;;;;;29.58;48.84;99061.50;262966;1089;25839;-72
2021/08/14 10:51:50;;;;;;;8.90;8.10;;;;;;;29.71;47.71;99065.31;264251;1085;25813;-70
2021/08/14 10:56:59;;;;;;;9.23;8.43;;;;;;;29.62;46.64;99070.52;263119;1087;22847;-71
2021/08/14 11:02:12;;;;;;;9.75;8.35;;;;;;;29.78;47.48;99062.46;263319;1087;24071;-71
2021/08/14 11:07:30;;;;;;;9.85;8.95;;;;;;;29.99;47.05;99055.16;262805;1086;27115;-73
2021/08/14 11:12:41;;;;;;;8.28;7.55;;;;;;;30.11;45.95;99057.38;262774;1087;22796;-71
2021/08/14 11:17:51;;;;;;;9.23;8.23;;;;;;;30.31;46.40;99048.44;262810;1087;25893;-72
2021/08/14 11:22:56;;;;;;;;;;;;;;;30.26;46.54;99051.66;262987;1087;26008;-72
2021/08/14 11:28:18;;;;;;;9.48;7.90;;;;;;;30.32;46.14;99042.49;262835;1089;24550;-71
2021/08/14 11:33:24;;;;;;;9.88;8.95;;;;;;;30.38;46.86;99037.28;263020;1087;22773;-73
2021/08/14 11:38:42;;;;;;;9.50;8.67;;;;;;;30.52;46.22;99034.33;262725;1084;22781;-71
2021/08/14 11:43:50;;;;;;;9.30;8.45;;;;;;;30.56;46.00;99034.28;262942;1088;22929;-72
2021/08/14 11:48:53;;;;;;;9.15;8.35;;;;;;;30.69;46.21;99034.48;262809;1090;23052;-72
2021/08/14 11:54:08;;;;;;;8.40;7.60;;;;;;;30.75;45.88;99024.50;262767;1085;26248;-73
2021/08/14 11:59:11;;;;;;;9.13;8.30;;;;;;;30.69;44.92;99020.66;262780;1086;25503;-73
2021/08/14 12:04:27;;;;;;;10.03;9.05;;;;;;;30.57;45.56;99018.47;262823;1087;25596;-72
2021/08/14 12:10:00;;;;;;;8.70;7.90;;;;;;;30.64;45.19;98999.01;262700;1087;22787;-72
2021/08/14 12:15:12;;;;;;;9.73;8.83;;;;;;;30.67;45.79;99000.95;262812;1088;22934;-71
2021/08/14 12:20:28;;;;;;;9.93;9.00;;;;;;;30.78;46.03;99003.53;262695;1085;25999;-71
2021/08/14 12:25:31;;;;;;;17.98;7.85;;;;;;;30.75;45.37;99007.14;263074;1088;27235;-72
2021/08/14 12:30:41;;;;;;;9.63;8.58;;;;;;;30.73;45.70;99013.09;262947;1086;23536;-71
2021/08/14 12:35:57;;;;;;;8.77;7.90;;;;;;;30.81;45.58;99010.98;262693;1087;24339;-71
2021/08/14 12:41:18;;;;;;;8.43;7.53;;;;;;;30.78;45.83;99012.63;262937;1089;23467;-71
2021/08/14 12:46:23;;;;;;;8.90;8.10;;;;;;;30.63;45.04;99005.76;262764;1090;22864;-71
2021/08/14 12:51:26;;;;;;;9.08;8.18;;;;;;;30.63;45.27;98986.41;262839;1087;26395;-72
2021/08/14 12:56:30;;;;;;;8.60;7.73;;;;;;;30.88;46.20;98986.77;262843;1087;24061;-72
2021/08/14 13:02:04;;;;;;;9.33;8.43;;;;;;;31.26;45.14;98982.97;262950;1085;25986;-73
2021/08/14 13:07:07;;;;;;;9.05;8.18;;;;;;;31.25;44.77;98986.16;262732;1087;22753;-71
2021/08/14 13:12:12;;;;;;;8.78;7.88;;;;;;;31.14;45.38;98975.28;262647;1087;25739;-72
2021/08/14 13:17:16;;;;;;;8.45;7.65;;;;;;;31.34;45.45;98975.30;262737;1089;22827;-73
2021/08/14 13:22:21;;;;;;;8.68;7.90;;;;;;;31.47;44.93;98967.93;262873;1087;22822;-72
2021/08/14 13:27:40;;;;;;;8.88;8.08;;;;;;;31.54;44.32;98962.25;262750;1090;24294;-72
2021/08/14 13:32:44;;;;;;;8.03;7.33;;;;;;;31.42;44.24;98957.34;262734;1087;24362;-73
2021/08/14 13:37:47;;;;;;;9.48;8.00;;;;;;;31.41;44.28;98947.50;262730;1090;25483;-72
2021/08/14 13:42:50;;;;;;;8.28;7.48;;;;;;;31.26;44.50;98951.76;262835;1087;25907;-71
2021/08/14 13:48:07;;;;;;;9.05;8.08;;;;;;;31.23;44.50;98951.39;262836;1088;27020;-72
2021/08/14 13:53:10;;;;;;;9.05;8.23;;;;;;;31.22;44.70;98952.59;262754;1090;25851;-72
2021/08/14 13:58:20;;;;;;;12.60;8.93;;;;;;;31.18;44.34;98951.88;262755;1087;26057;-71
2021/08/14 14:03:36;;;;;;;10.20;8.80;;;;;;;31.09;45.33;98942.56;262715;1087;22893;-71
2021/08/14 14:08:41;;;;;;;9.83;8.88;;;;;;;31.01;45.03;98945.47;262845;1086;26009;-72
2021/08/14 14:13:44;;;;;;;9.08;8.15;;;;;;;31.03;45.33;98940.31;262729;1089;25790;-71
2021/08/14 14:18:48;;;;;;;9.53;8.53;;;;;;;31.16;46.22;98945.99;262903;1087;24066;-72
2021/08/14 14:23:51;;;;;;;9.63;8.73;;;;;;;31.42;45.97;98940.74;262782;1090;24297;-72
2021/08/14 14:29:03;;;;;;;8.85;8.15;;;;;;;31.48;45.72;98941.82;263060;1087;22958;-71
2021/08/14 14:34:26;;;;;;;9.47;8.40;;;;;;;31.73;45.66;98946.06;262693;1089;22773;-71
2021/08/14 14:39:30;;;;;;;9.27;8.47;;;;;;;31.86;45.87;98938.67;262733;1090;25800;-72
2021/08/14 14:44:48;;;;;;;9.53;8.73;;;;;;;31.73;44.33;98930.25;263030;1089;25919;-72
2021/08/14 14:50:21;;;;;;;9.98;9.13;;;;;;;31.47;44.10;98940.25;262748;1089;22795;-73
2021/08/14 14:55:34;;;;;;;9.48;8.58;;;;;;;31.39;44.48;98930.53;262710;1087;23217;-72
2021/08/14 15:00:40;;;;;;;10.05;8.98;;;;;;;31.43;44.58;98917.41;262739;1088;22908;-71
2021/08/14 15:06:08;;;;;;;11.63;9.23;;;;;;;31.36;44.87;98920.31;262876;1088;26011;-72
2021/08/14 15:11:16;;;;;;;10.70;8.67;;;;;;;31.25;45.06;98914.22;262621;1089;22896;-71
2021/08/14 15:16:21;;;;;;;9.93;8.80;;;;;;;31.10;44.22;98908.95;262921;1089;22784;-72
2021/08/14 15:21:37;;;;;;;10.53;9.48;;;;;;;31.01;44.34;98911.48;262706;1089;25887;-71
2021/08/14 15:26:56;;;;;;;9.05;8.33;;;;;;;31.11;44.96;98896.69;262720;1089;26047;-72
2021/08/14 15:32:02;;;;;;;10.48;9.50;;;;;;;30.88;45.02;98889.20;262659;1088;22772;-72
2021/08/14 15:37:06;;;;;;;11.13;10.03;;;;;;;30.67;45.28;98890.38;262652;1087;25989;-71
2021/08/14 15:42:11;;;;;;;10.48;9.58;;;;;;;30.38;45.33;98882.54;262756;1087;22780;-72
2021/08/14 15:47:22;;;;;;;9.78;8.85;;;;;;;30.09;45.87;98896.80;262638;1089;22937;-72
2021/08/14 15:52:25;;;;;;;10.48;9.50;;;;;;;29.88;46.13;98892.38;262613;1090;25960;-72
2021/08/14 15:57:30;;;;;;;10.23;9.33;;;;;;;29.89;46.72;98885.66;262860;1088;25451;-71
2021/08/14 16:02:35;;;;;;;10.50;9.38;;;;;;;29.89;46.99;98887.66;262813;1089;22864;-71
2021/08/14 16:07:40;;;;;;;9.57;8.67;;;;;;;29.86;46.72;98881.75;262783;1089;22779;-71
2021/08/14 16:12:43;;;;;;;9.75;8.75;;;;;;;29.91;47.25;98868.67;262689;1088;27032;-72
2021/08/14 16:18:01;;;;;;;10.90;9.85;;;;;;;29.95;47.33;98863.88;262990;1090;26264;-71
2021/08/14 16:23:20;;;;;;;9.93;9.00;;;;;;;30.03;47.22;98862.58;262764;1088;22804;-72
2021/08/14 16:28:24;;;;;;;11.07;10.07;;;;;;;29.99;47.35;98861.85;262708;1087;24358;-72
2021/08/14 16:33:27;;;;;;;10.15;9.23;;;;;;;29.97;46.90;98862.27;262719;1090;22834;-72
2021/08/14 16:38:38;;;;;;;11.40;10.33;;;;;;;29.88;46.97;98859.25;262929;1087;25996;-72
2021/08/14 16:43:49;;;;;;;11.80;9.33;;;;;;;29.77;47.05;98853.08;262836;1088;22785;-71
2021/08/14 16:48:54;;;;;;;9.63;8.77;;;;;;;29.71;46.74;98844.48;262795;1089;22932;-71
2021/08/14 16:53:57;;;;;;;9.40;8.43;;;;;;;29.65;47.24;98844.17;262786;1087;22816;-72
2021/08/14 16:59:00;;;;;;;10.15;9.23;;;;;;;29.62;47.76;98841.45;262825;1087;25880;-71
2021/08/14 17:04:04;;;;;;;11.93;9.93;;;;;;;29.55;48.19;98839.59;262627;1089;25900;-72
2021/08/14 17:09:09;;;;;;;11.23;9.93;;;;;;;29.44;48.82;98838.95;262693;1085;22790;-71
2021/08/14 17:14:12;;;;;;;10.75;9.75;;;;;;;29.28;48.69;98840.34;262629;1086;24339;-73
2021/08/14 17:19:16;;;;;;;10.50;9.15;;;;;;;29.09;49.42;98838.19;262708;1087;24630;-72
2021/08/14 17:24:19;;;;;;;10.15;9.20;;;;;;;28.81;49.60;98838.09;262621;1085;25848;-71
2021/08/14 17:29:22;;;;;;;10.93;8.98;;;;;;;28.58;49.80;98832.39;262693;1085;22881;-72
2021/08/14 17:34:34;;;;;;;10.95;9.85;;;;;;;28.35;50.25;98833.80;262651;1085;22787;-72
2021/08/14 17:39:42;;;;;;;10.55;9.55;;;;;;;28.12;50.90;98828.86;262649;1087;25992;-72
2021/08/14 17:44:46;;;;;;;11.15;10.05;;;;;;;27.87;51.54;98826.27;262595;1087;22809;-72
2021/08/14 17:49:50;;;;;;;13.35;10.63;;;;;;;27.60;52.05;98832.34;262762;1087;22786;-72
2021/08/14 17:54:53;;;;;;;13.28;10.20;;;;;;;27.36;52.05;98829.33;262887;1085;22965;-72
2021/08/14 17:59:56;;;;;;;15.55;10.78;;;;;;;27.10;52.88;98834.13;263117;1090;25884;-72
2021/08/14 18:05:17;;;;;;;17.78;11.40;;;;;;;26.85;53.62;98834.22;262852;1089;25906;-72
2021/08/14 18:10:23;;;;;;;13.10;10.80;;;;;;;26.60;53.95;98839.73;262735;1090;24322;-73
2021/08/14 18:15:44;;;;;;;11.97;10.83;;;;;;;26.37;54.25;98835.45;262813;1088;22795;-72
2021/08/14 18:20:48;;;;;;;11.88;10.68;;;;;;;26.13;54.79;98837.81;262830;1089;23378;-71
2021/08/14 18:25:52;;;;;;;12.83;11.53;;;;;;;25.95;55.17;98840.52;262397;1087;22779;-71
2021/08/14 18:30:55;;;;;;;13.93;11.50;;;;;;;25.83;55.92;98840.08;263054;1087;26404;-72
2021/08/14 18:36:00;;;;;;;15.68;11.43;;;;;;;25.69;56.56;98841.64;262874;1086;24457;-72
2021/08/14 18:41:03;;;;;;;12.53;11.28;;;;;;;25.54;56.65;98838.06;262743;1087;24291;-72
2021/08/14 18:46:08;;;;;;;18.38;11.53;;;;;;;25.39;56.83;98841.94;263036;1085;25908;-72
2021/08/14 18:51:13;;;;;;;12.95;11.63;;;;;;;25.22;57.08;98840.67;262757;1090;22881;-71
2021/08/14 18:56:18;;;;;;;12.75;11.45;;;;;;;25.04;57.93;98841.39;262817;1089;24469;-72
2021/08/14 19:01:21;;;;;;;17.60;13.20;;;;;;;24.92;58.55;98841.72;262842;1090;26405;-71
2021/08/14 19:06:25;;;;;;;16.25;13.88;;;;;;;24.81;59.07;98846.36;262779;1090;26274;-71
2021/08/14 19:11:28;;;;;;;16.90;13.75;;;;;;;24.66;59.28;98845.47;262851;1087;24351;-73
2021/08/14 19:16:32;;;;;;;16.83;13.98;;;;;;;24.51;59.75;98839.88;262817;1087;22802;-72
2021/08/14 19:21:35;;;;;;;17.10;12.05;;;;;;;24.38;60.36;98847.59;262874;1087;22928;-72
2021/08/14 19:26:40;;;;;;;14.75;12.70;;;;;;;24.25;60.85;98847.09;262825;1087;27100;-72
2021/08/14 19:31:45;;;;;;;15.28;12.80;;;;;;;24.17;61.39;98847.42;262670;1085;22789;-72
2021/08/14 19:36:48;;;;;;;15.50;13.20;;;;;;;24.07;61.29;98844.20;262707;1089;24339;-72
2021/08/14 19:41:52;;;;;;;14.75;13.15;;;;;;;23.97;61.50;98841.40;262646;1089;22867;-73
2021/08/14 19:46:55;;;;;;;15.78;13.10;;;;;;;23.85;62.15;98831.47;262690;1088;22928;-73
2021/08/14 19:52:11;;;;;;;16.00;12.40;;;;;;;23.77;62.45;98838.03;262839;1088;22786;-72
2021/08/14 19:57:31;;;;;;;16.35;13.38;;;;;;;23.69;63.01;98835.23;262717;1088;26005;-74
2021/08/14 20:02:37;;;;;;;16.55;14.80;;;;;;;23.62;63.32;98840.63;262693;1088;22981;-72
2021/08/14 20:07:40;;;;;;;20.55;15.03;;;;;;;23.55;63.74;98838.59;262716;1090;25530;-72
2021/08/14 20:12:43;;;;;;;20.00;15.23;;;;;;;23.50;64.57;98838.92;262563;1089;25848;-73
2021/08/14 20:17:47;;;;;;;14.93;13.33;;;;;;;23.45;64.44;98835.73;262540;1085;22735;-72
2021/08/14 20:22:50;;;;;;;15.83;13.90;;;;;;;23.24;64.57;98837.08;262633;1090;25049;-72
2021/08/14 20:27:54;;;;;;;17.23;11.70;;;;;;;22.99;64.76;98832.05;262635;1088;26005;-73
2021/08/14 20:32:59;;;;;;;13.17;11.77;;;;;;;22.86;65.41;98834.23;262999;1085;24364;-72
2021/08/14 20:38:05;;;;;;;15.00;13.13;;;;;;;22.72;66.17;98829.35;262724;1087;22913;-71
2021/08/14 20:43:08;;;;;;;15.13;12.50;;;;;;;22.59;66.68;98824.47;262713;1087;25877;-72
2021/08/14 20:48:13;;;;;;;15.13;13.10;;;;;;;22.44;67.28;98823.46;262629;1087;22802;-73
2021/08/14 20:53:30;;;;;;;19.05;13.15;;;;;;;22.38;67.23;98820.26;262704;1090;25893;-72
2021/08/14 20:58:47;;;;;;;20.78;15.33;;;;;;;22.36;67.97;98819.84;262719;1088;22811;-72
2021/08/14 21:03:50;;;;;;;16.63;14.93;;;;;;;22.32;68.11;98814.30;262615;1087;22844;-72
2021/08/14 21:08:54;;;;;;;16.13;14.08;;;;;;;22.26;68.04;98818.50;262794;1090;22860;-73
2021/08/14 21:13:57;;;;;;;14.75;13.13;;;;;;;22.20;68.40;98819.94;262676;1089;26059;-71
2021/08/14 21:19:01;;;;;;;17.85;16.00;;;;;;;22.11;68.44;98822.15;262624;1087;22779;-72
2021/08/14 21:24:04;;;;;;;19.80;16.43;;;;;;;22.07;68.97;98815.84;262677;1090;25970;-71
2021/08/14 21:29:08;;;;;;;17.80;14.53;;;;;;;21.99;68.92;98813.00;262682;1087;25887;-71
2021/08/14 21:34:12;;;;;;;18.23;14.88;;;;;;;21.97;68.89;98812.56;262711;1085;22780;-71
2021/08/14 21:39:15;;;;;;;17.13;14.95;;;;;;;21.91;69.17;98807.77;262614;1087;23401;-72
2021/08/14 21:44:19;;;;;;;16.17;14.53;;;;;;;21.84;69.44;98811.18;262689;1087;24460;-72
2021/08/14 21:49:28;;;;;;;17.53;14.53;;;;;;;21.77;69.68;98817.29;262641;1087;24304;-73
2021/08/14 21:54:31;;;;;;;16.65;14.50;;;;;;;21.74;69.79;98806.31;262627;1087;22900;-72
2021/08/14 21:59:36;;;;;;;18.10;15.33;;;;;;;21.66;69.91;98795.28;262859;1085;22873;-72
2021/08/14 22:04:39;;;;;;;17.83;15.00;;;;;;;21.62;70.30;98805.33;262656;1089;24367;-72
2021/08/14 22:09:42;;;;;;;18.85;15.00;;;;;;;21.50;70.24;98800.81;262622;1089;25989;-72
2021/08/14 22:14:47;;;;;;;18.57;14.47;;;;;;;21.36;70.39;98790.44;262825;1090;23574;-72
2021/08/14 22:19:51;;;;;;;19.10;16.90;;;;;;;21.34;70.95;98795.44;262686;1087;22763;-73
2021/08/14 22:25:07;;;;;;;19.97;15.73;;;;;;;21.15;71.16;98796.25;262641;1087;22751;-73
2021/08/14 22:30:31;;;;;;;20.85;16.50;;;;;;;21.12;71.76;98796.95;262626;1090;24349;-72
2021/08/14 22:35:36;;;;;;;19.20;16.70;;;;;;;21.00;72.03;98794.39;262597;1090;24322;-72
2021/08/14 22:40:45;;;;;;;20.13;16.83;;;;;;;20.97;72.34;98789.63;262642;1085;22790;-72
2021/08/14 22:45:49;;;;;;;19.03;15.27;;;;;;;20.97;72.90;98785.00;262617;1086;22825;-72
2021/08/14 22:50:53;;;;;;;17.23;15.37;;;;;;;20.96;72.62;98788.86;262683;1089;23456;-72
2021/08/14 22:55:56;;;;;;;18.63;15.40;;;;;;;20.93;72.65;98783.33;262661;1089;25894;-72
2021/08/14 23:01:04;;;;;;;19.27;17.00;;;;;;;20.89;72.80;98791.44;262550;1089;24472;-71
2021/08/14 23:06:07;;;;;;;19.53;16.87;;;;;;;20.84;72.68;98783.54;262656;1090;22764;-71
2021/08/14 23:11:11;;;;;;;19.03;17.03;;;;;;;20.76;73.05;98777.17;262738;1090;25877;-72
2021/08/14 23:16:16;;;;;;;19.95;16.10;;;;;;;20.70;72.69;98775.08;262634;1087;22912;-71
2021/08/14 23:21:19;;;;;;;18.60;16.65;;;;;;;20.64;73.29;98767.16;262596;1090;24065;-72
2021/08/14 23:26:22;;;;;;;17.80;14.87;;;;;;;20.58;73.23;98770.50;262647;1089;22783;-72
2021/08/14 23:31:26;;;;;;;15.77;13.77;;;;;;;20.44;73.01;98765.53;262812;1087;24462;-71
2021/08/14 23:36:29;;;;;;;17.85;15.05;;;;;;;20.22;73.20;98767.77;262699;1087;25999;-72